Williamsburg, MA (01096)

4:21 AM EDT on September 03, 2015 (GMT -0400)
Williamsburg-Conway Town Line | | Change Station
CLOSE
Current Station
Personal Weather Station
Location: Williamsburg, MA
Elevation: 860 ft
Nearby Weather Stations

Elev 860 ft 42.45 °N, 72.75 °W | Updated 3 seconds ago

Fog
Fog
63.5 °F
Feels Like 63.5 °F
N
0.0
Wind Variable Wind from NNW
Gusts 0.0 mph

Today
High -- | Low -- °F
--% Chance of Precip.
Yesterday
High -- | Low -- °F
Precip. -- in
6:17 AM 7:22 PM
Waning Gibbous, 72% visible
Pressure 29.86 in
Visibility 3.0 miles
Clouds Clear
Dew Point 63 °F
Humidity 97%
Rainfall 0.00 in
Snow Depth Not available.
UV 0.0 out of 12
Pollen 9.40 out of 12
Air Quality Not available.
Flu Activity Not available.
SPECI KBAF 030812Z 00000KT 3SM BR CLR 18/17 A2986 RMK AO2 T01780167
Pressure 29.86 in
Visibility 3.0 miles
Clouds Clear
Dew Point 63 °F
Humidity 97%
Rainfall 0.00 in
Snow Depth Not available.
UV 0.0 out of 12
Pollen 9.40 out of 12
Air Quality Not available.
Flu Activity Not available.
SPECI KBAF 030812Z 00000KT 3SM BR CLR 18/17 A2986 RMK AO2 T01780167

10-Day Weather Forecast

×

Almanac

Astronomy

Sep. 03, 2015 Rise Set
Actual Time
Civil Twilight
Nautical Twilight
Astronomical Twilight
Moon
Length of Visible Light
Length of Day
Tomorrow will be .
, % of the Moon is Illuminated

Today's Extremes

State Highs State Lows

Community

WunderPhotos

Upload Photos

1,851,919 photos uploaded!

WunderBlogs® & News

Nearby

Air Quality

  Air Quality AQ Index Pollutant
Not available.

Snow Depth

Station Depth Elevation

Earthquake Activity

City Distance Mag. Time & Date
Minimum magnitude displayed is 2.5.

Coastal Water Temperatures

Place Temperature

Stations

Nearby Weather Stations

Station Location Temp. Windchill Dew Point Humidity Wind Precip. Elev Updated Type